This is the latest recevied weather packets stored in our database for station/object SIILIN. If no packets are shown the sender has not sent any weather packets the latest 10 day(s).
| Time | Temp. | Humidity | Pressure | Rain* | Wind** | Luminosity | Snow |
|---|---|---|---|---|---|---|---|
| 1777574817 | 13.33° C | 56% | 1020.3 hPa | - | - | - | - |
| 1777572416 | 13.89° C | 55% | 1020 hPa | - | - | - | - |
| 1777568817 | 12.78° C | 58% | 1019.6 hPa | - | - | - | - |
| 1777562816 | 13.89° C | 52% | 1019.4 hPa | - | - | - | - |
| 1777559216 | 13.33° C | 54% | 1019.4 hPa | - | - | - | - |
| 1777555616 | 12.78° C | 55% | 1019.6 hPa | - | - | - | - |
| 1777550816 | 11.67° C | 65% | 1019.8 hPa | - | - | - | - |
| 1777546015 | 10° C | 69% | 1020 hPa | - | - | - | - |
| 1777544816 | 10° C | 66% | 1020.2 hPa | - | - | - | - |
| 1777543615 | 10.56° C | 65% | 1020.4 hPa | - | - | - | - |
| 1777542415 | 9.44° C | 69% | 1020.6 hPa | - | - | - | - |
| 1777541215 | 9.44° C | 70% | 1020.6 hPa | - | - | - | - |
| 1777540015 | 8.89° C | 75% | 1020.6 hPa | - | - | - | - |
| 1777538815 | 8.89° C | 71% | 1020.7 hPa | - | - | - | - |
| 1777537615 | 7.22° C | 78% | 1020.9 hPa | - | - | - | - |
| 1777536415 | 7.22° C | 78% | 1020.7 hPa | - | - | - | - |
| 1777534015 | 6.67° C | 81% | 1020.6 hPa | - | - | - | - |
| 1777532815 | 6.11° C | 84% | 1020.6 hPa | - | - | - | - |
| 1777530415 | 5.56° C | 86% | 1020.7 hPa | - | - | - | - |
| 1777529214 | 4.44° C | 91% | 1020.8 hPa | - | - | - | - |
| 1777528014 | 4.44° C | 91% | 1020.6 hPa | - | - | - | - |
| 1777526815 | 3.89° C | 92% | 1020.6 hPa | - | - | - | - |
| 1777525614 | 3.89° C | 93% | 1020.6 hPa | - | - | - | - |
| 1777524414 | 3.89° C | 91% | 1020.9 hPa | - | - | - | - |
| 1777523214 | 3.89° C | 92% | 1021.1 hPa | - | - | - | - |
* Rain since midnight (hover to see other rain measurements)
** Current wind speed in m/s (hover to see current wind gust speed)